Crystal Wind — YJVR5 — position and weather

sailwx.info

Track history (hours):
 
Tides and Currents Weather Stations Pressure Air Temp Water Temp Dewpoint Dewpoint Depression Visibility Wind Speed Wind Dir Waves Ship Positions

Crystal Wind

Last reported at 2018-May-13 08:47 UTC. Time now 2018-Jun-24 12:30 UTC.
Position S 27°47' E 154°02'.
Warning: this ship's position is 42 days out of date.

Length 218 m; draft 12.7 m.

Type: Ship. MMSI: 576081000.

Date/timePositionNaut miles runAvg speedWind from/ knotsBaromVisibWave heightAir tempDewpointWater temp
2018-May-13 08:47S 27°47' E 154°02'410.1
2018-May-13 08:24S 27°51' E 154°04'510.1
2018-May-13 07:56S 27°55' E 154°04'510.6
2018-May-13 07:30S 27°60' E 154°04'611.4
2018-May-13 06:58S 28°06' E 154°03'612.1
2018-May-13 06:28S 28°12' E 154°03'612.3
2018-May-13 06:00S 28°18' E 154°03'911.5
2018-May-13 05:11S 28°27' E 154°01'211.8
2018-May-13 05:00S 28°29' E 154°00'244 9.4
2018-May-12 03:09S 32°24' E 152°44'1 9.2
2018-May-12 03:00S 32°25' E 152°43'5 9.0
2018-May-12 02:30S 32°29' E 152°41'510.3
2018-May-12 02:00S 32°33' E 152°36'611.7
2018-May-12 01:30S 32°37' E 152°31'611.9
2018-May-12 01:00S 32°41' E 152°26'611.7
2018-May-12 00:30S 32°45' E 152°21'611.5
2018-May-12 00:00S 32°49' E 152°16'611.1
2018-May-11 23:30S 32°52' E 152°11'611.2
2018-May-11 23:00S 32°54' E 152°05'611.5
2018-May-11 22:30S 32°57' E 151°58'611.3
2018-May-11 22:00S 32°57' E 151°52'4 7.6
2018-May-11 21:30S 32°55' E 151°48'1 3.0
2018-May-11 21:00S 32°54' E 151°46'1 1.7
2018-May-11 20:28S 32°53' E 151°46'0 0.0
2018-May-11 19:58S 32°53' E 151°46'0 0.0
2018-May-11 19:28S 32°53' E 151°46'0 0.0
2018-May-11 18:58S 32°53' E 151°46'0 0.0
2018-May-11 18:13S 32°53' E 151°46'0 0.0
2018-May-11 17:46S 32°53' E 151°46'0 0.0
2018-May-11 17:28S 32°53' E 151°46'0 0.0
2018-May-11 16:46S 32°53' E 151°46'0 0.0
2018-May-11 16:28S 32°53' E 151°46'0 0.0
2018-May-11 15:58S 32°53' E 151°46'0 0.0
2018-May-11 15:28S 32°53' E 151°46'0 0.0
2018-May-11 14:58S 32°53' E 151°46'0 0.0
2018-May-11 14:28S 32°53' E 151°46'0 0.0
2018-May-11 13:58S 32°53' E 151°46'0 0.0
2018-May-11 13:28S 32°53' E 151°46'0 0.0
2018-May-11 12:58S 32°53' E 151°46'0 0.0
2018-May-11 12:28S 32°53' E 151°46'0 0.0
2018-May-11 11:58S 32°53' E 151°46'0 0.0
2018-May-11 11:28S 32°53' E 151°46'0 0.0
2018-May-11 10:58S 32°53' E 151°46'0 0.0
2018-May-11 10:25S 32°53' E 151°46'0 0.0
2018-May-11 09:58S 32°53' E 151°46'0 0.0
2018-May-11 09:28S 32°53' E 151°46'0 0.0
2018-May-11 08:58S 32°53' E 151°46'0 0.0
2018-May-11 08:28S 32°53' E 151°46'0 0.0
2018-May-11 07:58S 32°53' E 151°46'0 0.0
2018-May-11 06:49S 32°53' E 151°46'0 1.5
2018-May-11 06:30S 32°54' E 151°46'2 4.2
2018-May-11 06:01S 32°55' E 151°48'5 9.4
2018-May-11 05:30S 32°58' E 151°52'2 4.7
2018-May-11 05:00S 32°60' E 151°54'3 5.3
2018-May-11 04:30S 33°02' E 151°56'3 5.2
2018-May-11 04:01S 33°04' E 151°58'4 7.7
2018-May-11 03:30S 33°05' E 152°03'4 8.0
2018-May-11 03:00S 33°08' E 152°06'510.0
2018-May-11 02:30S 33°12' E 152°10'5 9.8
2018-May-11 02:00S 33°15' E 152°14'8 9.6
2018-May-11 01:11S 33°21' E 152°20'5 2.3
2018-May-10 22:57S 33°22' E 152°27'1 2.3
2018-May-10 22:19S 33°20' E 152°26'1 2.1
2018-May-10 21:58S 33°20' E 152°25'3 1.6
2018-May-10 20:22S 33°17' E 152°24'1 1.4
2018-May-10 19:55S 33°17' E 152°23'1 1.3
2018-May-10 19:07S 33°16' E 152°22'1 1.5
2018-May-10 18:43S 33°17' E 152°22'1 1.9
2018-May-10 18:04S 33°17' E 152°20'11 1.2
2018-May-10 09:18S 33°28' E 152°18'2 3.3
2018-May-10 08:46S 33°26' E 152°18'3 2.8
2018-May-10 07:41S 33°23' E 152°18'0 2.3
2018-May-10 07:29S 33°23' E 152°18'1 2.2
2018-May-10 07:00S 33°22' E 152°18'1 1.9
2018-May-10 06:30S 33°21' E 152°18'1 1.8
2018-May-10 06:00S 33°20' E 152°18'1 1.8
2018-May-10 05:31S 33°19' E 152°18'1 1.5
2018-May-10 04:58S 33°18' E 152°18'1 1.4
2018-May-10 04:22S 33°17' E 152°17'0 0.9
2018-May-10 03:58S 33°17' E 152°17'0 0.9
2018-May-10 03:28S 33°17' E 152°16'0 0.9
2018-May-10 02:58S 33°17' E 152°16'1 1.2
2018-May-10 02:29S 33°17' E 152°15'1 1.6
2018-May-10 01:55S 33°17' E 152°14'0 1.0
2018-May-10 01:28S 33°17' E 152°13'1 1.3
2018-May-10 01:01S 33°16' E 152°13'1 1.3
2018-May-10 00:28S 33°16' E 152°12'1 1.5
2018-May-10 00:01S 33°16' E 152°11'1 1.8
2018-May-09 23:30S 33°16' E 152°10'1 1.8
2018-May-09 23:00S 33°16' E 152°09'1 1.7
2018-May-09 22:27S 33°16' E 152°08'1 1.8
2018-May-09 22:00S 33°16' E 152°07'1 1.7
2018-May-09 21:26S 33°16' E 152°06'1 1.8
2018-May-09 20:59S 33°16' E 152°05'1 1.5
2018-May-09 20:29S 33°16' E 152°04'1 1.7
2018-May-09 19:59S 33°16' E 152°03'1 1.5
2018-May-09 19:29S 33°16' E 152°02'1 1.3
2018-May-09 18:59S 33°16' E 152°01'0 0.8
2018-May-09 18:29S 33°16' E 152°01'0 0.8
2018-May-09 17:56S 33°16' E 152°00'0 0.7
2018-May-09 17:29S 33°16' E 151°60'0 0.4
2018-May-09 16:59S 33°16' E 151°60'0 0.5
2018-May-09 16:29S 33°16' E 151°60'0 0.5
2018-May-09 15:59S 33°17' E 151°59'0 0.4
2018-May-09 15:29S 33°17' E 151°59'0 0.6
2018-May-09 14:59S 33°16' E 151°59'0 0.9
2018-May-09 14:30S 33°16' E 151°59'1 1.0
2018-May-09 14:00S 33°16' E 151°58'1 2.0
2018-May-09 13:31S 33°15' E 151°57'4 8.3
2018-May-09 13:01S 33°14' E 151°52'4 8.8
2018-May-09 12:31S 33°14' E 151°47'1 1.4
2018-May-09 11:58S 33°14' E 151°48'1 1.1
2018-May-09 11:28S 33°14' E 151°49'0 0.9
2018-May-09 10:58S 33°14' E 151°49'0 0.9
2018-May-09 10:28S 33°14' E 151°50'0 0.9
2018-May-09 09:58S 33°14' E 151°50'0 0.9
2018-May-09 09:28S 33°13' E 151°51'0 0.9
2018-May-09 08:58S 33°13' E 151°51'1 1.2
2018-May-09 08:28S 33°13' E 151°52'1 1.0
2018-May-09 07:58S 33°13' E 151°53'1 1.0
2018-May-09 07:28S 33°13' E 151°53'1 1.0
2018-May-09 06:58S 33°13' E 151°54'0 0.8
2018-May-09 06:28S 33°13' E 151°54'0 0.8
2018-May-09 05:58S 33°13' E 151°55'0 0.8
2018-May-09 05:28S 33°13' E 151°55'0 0.8
2018-May-09 04:58S 33°13' E 151°56'0 0.7
2018-May-09 04:28S 33°13' E 151°56'1 1.3
2018-May-09 03:59S 33°12' E 151°57'2 4.4
2018-May-09 03:30S 33°11' E 151°58'4 6.3
2018-May-09 02:57S 33°09' E 152°02'0 0.5
2018-May-09 02:30S 33°09' E 152°02'0 0.3
2018-May-09 02:00S 33°09' E 152°02'0 0.5
2018-May-09 01:30S 33°09' E 152°01'0 0.4
2018-May-09 00:57S 33°09' E 152°01'0 0.4
2018-May-08 23:45S 33°09' E 152°00'0 0.3
2018-May-08 23:27S 33°09' E 152°00'0 0.4
2018-May-08 22:57S 33°09' E 152°00'0 0.2
2018-May-08 22:30S 33°09' E 152°00'0 0.2
2018-May-08 22:00S 33°09' E 152°00'0 0.2
2018-May-08 21:30S 33°09' E 151°60'0 0.1
2018-May-08 20:57S 33°09' E 151°60'0 0.3
2018-May-08 20:30S 33°09' E 151°60'0 0.4
2018-May-08 20:00S 33°09' E 151°60'0 0.5
2018-May-08 19:27S 33°09' E 151°59'0 0.6
2018-May-08 19:00S 33°08' E 151°59'0 0.7
2018-May-08 18:30S 33°08' E 151°59'0 0.7
2018-May-08 18:00S 33°08' E 151°59'0 0.7
2018-May-08 17:30S 33°07' E 151°59'0 0.9
2018-May-08 17:00S 33°07' E 151°59'0 0.9
2018-May-08 16:30S 33°07' E 151°58'0 0.8
2018-May-08 16:00S 33°06' E 151°58'0 0.9
2018-May-08 15:30S 33°06' E 151°58'1 1.1
2018-May-08 15:00S 33°05' E 151°58'2 5.0
2018-May-08 14:31S 33°03' E 151°59'611.3
2018-May-08 14:01S 32°59' E 152°04'612.4
2018-May-08 13:30S 32°55' E 152°09'612.3
2018-May-08 13:01S 32°51' E 152°14'612.2
2018-May-08 12:30S 32°46' E 152°20'612.2
2018-May-08 12:01S 32°42' E 152°25'612.1
2018-May-08 11:31S 32°38' E 152°30'612.1
2018-May-08 11:01S 32°34' E 152°35'612.5
2018-May-08 10:31S 32°29' E 152°41'713.8
2018-May-08 10:00S 32°23' E 152°44'23414.2
2018-May-07 17:34S 28°36' E 153°49'413.8
2018-May-07 17:16S 28°32' E 153°49'413.9
2018-May-07 16:57S 28°28' E 153°49'613.8
2018-May-07 16:30S 28°22' E 153°50'713.4
2018-May-07 16:00S 28°15' E 153°49'712.8
2018-May-07 15:30S 28°09' E 153°46'612.3
2018-May-07 15:00S 28°03' E 153°44'611.9
2018-May-07 14:30S 27°58' E 153°42'612.1
2018-May-07 14:00S 27°51' E 153°42'711.9
2018-May-07 13:25S 27°45' E 153°42'511.7
2018-May-07 13:00S 27°40' E 153°42'611.5
2018-May-07 12:30S 27°34' E 153°42'611.5
2018-May-07 11:59S 27°28' E 153°42'511.5
2018-May-07 11:30S 27°22' E 153°42'611.8
2018-May-07 10:59S 27°16' E 153°42'611.7
2018-May-07 10:29S 27°10' E 153°42'611.9
2018-May-07 10:00S 27°05' E 153°42'611.7
2018-May-07 09:27S 26°58' E 153°42'  
Track history (hours):
 
Tides and Currents Weather Stations Pressure Air Temp Water Temp Dewpoint Dewpoint Depression Visibility Wind Speed Wind Dir Waves Ship Positions

Crystal Wind

Last reported at 2018-May-13 08:47 UTC. Time now 2018-Jun-24 12:30 UTC.
Position S 27°47' E 154°02'.
Warning: this ship's position is 42 days out of date.

Length 218 m; draft 12.7 m.

Type: Ship. MMSI: 576081000.

Date/timePositionNaut miles runAvg speedWind from/ knotsBaromVisibWave heightAir tempDewpointWater temp
2018-May-13 08:47S 27°47' E 154°02'410.1
2018-May-13 08:24S 27°51' E 154°04'510.1
2018-May-13 07:56S 27°55' E 154°04'510.6
2018-May-13 07:30S 27°60' E 154°04'611.4
2018-May-13 06:58S 28°06' E 154°03'612.1
2018-May-13 06:28S 28°12' E 154°03'612.3
2018-May-13 06:00S 28°18' E 154°03'911.5
2018-May-13 05:11S 28°27' E 154°01'211.8
2018-May-13 05:00S 28°29' E 154°00'244 9.4
2018-May-12 03:09S 32°24' E 152°44'1 9.2
2018-May-12 03:00S 32°25' E 152°43'5 9.0
2018-May-12 02:30S 32°29' E 152°41'510.3
2018-May-12 02:00S 32°33' E 152°36'611.7
2018-May-12 01:30S 32°37' E 152°31'611.9
2018-May-12 01:00S 32°41' E 152°26'611.7
2018-May-12 00:30S 32°45' E 152°21'611.5
2018-May-12 00:00S 32°49' E 152°16'611.1
2018-May-11 23:30S 32°52' E 152°11'611.2
2018-May-11 23:00S 32°54' E 152°05'611.5
2018-May-11 22:30S 32°57' E 151°58'611.3
2018-May-11 22:00S 32°57' E 151°52'4 7.6
2018-May-11 21:30S 32°55' E 151°48'1 3.0
2018-May-11 21:00S 32°54' E 151°46'1 1.7
2018-May-11 20:28S 32°53' E 151°46'0 0.0
2018-May-11 19:58S 32°53' E 151°46'0 0.0
2018-May-11 19:28S 32°53' E 151°46'0 0.0
2018-May-11 18:58S 32°53' E 151°46'0 0.0
2018-May-11 18:13S 32°53' E 151°46'0 0.0
2018-May-11 17:46S 32°53' E 151°46'0 0.0
2018-May-11 17:28S 32°53' E 151°46'0 0.0
2018-May-11 16:46S 32°53' E 151°46'0 0.0
2018-May-11 16:28S 32°53' E 151°46'0 0.0
2018-May-11 15:58S 32°53' E 151°46'0 0.0
2018-May-11 15:28S 32°53' E 151°46'0 0.0
2018-May-11 14:58S 32°53' E 151°46'0 0.0
2018-May-11 14:28S 32°53' E 151°46'0 0.0
2018-May-11 13:58S 32°53' E 151°46'0 0.0
2018-May-11 13:28S 32°53' E 151°46'0 0.0
2018-May-11 12:58S 32°53' E 151°46'0 0.0
2018-May-11 12:28S 32°53' E 151°46'0 0.0
2018-May-11 11:58S 32°53' E 151°46'0 0.0
2018-May-11 11:28S 32°53' E 151°46'0 0.0
2018-May-11 10:58S 32°53' E 151°46'0 0.0
2018-May-11 10:25S 32°53' E 151°46'0 0.0
2018-May-11 09:58S 32°53' E 151°46'0 0.0
2018-May-11 09:28S 32°53' E 151°46'0 0.0
2018-May-11 08:58S 32°53' E 151°46'0 0.0
2018-May-11 08:28S 32°53' E 151°46'0 0.0
2018-May-11 07:58S 32°53' E 151°46'0 0.0
2018-May-11 06:49S 32°53' E 151°46'0 1.5
2018-May-11 06:30S 32°54' E 151°46'2 4.2
2018-May-11 06:01S 32°55' E 151°48'5 9.4
2018-May-11 05:30S 32°58' E 151°52'2 4.7
2018-May-11 05:00S 32°60' E 151°54'3 5.3
2018-May-11 04:30S 33°02' E 151°56'3 5.2
2018-May-11 04:01S 33°04' E 151°58'4 7.7
2018-May-11 03:30S 33°05' E 152°03'4 8.0
2018-May-11 03:00S 33°08' E 152°06'510.0
2018-May-11 02:30S 33°12' E 152°10'5 9.8
2018-May-11 02:00S 33°15' E 152°14'8 9.6
2018-May-11 01:11S 33°21' E 152°20'5 2.3
2018-May-10 22:57S 33°22' E 152°27'1 2.3
2018-May-10 22:19S 33°20' E 152°26'1 2.1
2018-May-10 21:58S 33°20' E 152°25'3 1.6
2018-May-10 20:22S 33°17' E 152°24'1 1.4
2018-May-10 19:55S 33°17' E 152°23'1 1.3
2018-May-10 19:07S 33°16' E 152°22'1 1.5
2018-May-10 18:43S 33°17' E 152°22'1 1.9
2018-May-10 18:04S 33°17' E 152°20'11 1.2
2018-May-10 09:18S 33°28' E 152°18'2 3.3
2018-May-10 08:46S 33°26' E 152°18'3 2.8
2018-May-10 07:41S 33°23' E 152°18'0 2.3
2018-May-10 07:29S 33°23' E 152°18'1 2.2
2018-May-10 07:00S 33°22' E 152°18'1 1.9
2018-May-10 06:30S 33°21' E 152°18'1 1.8
2018-May-10 06:00S 33°20' E 152°18'1 1.8
2018-May-10 05:31S 33°19' E 152°18'1 1.5
2018-May-10 04:58S 33°18' E 152°18'1 1.4
2018-May-10 04:22S 33°17' E 152°17'0 0.9
2018-May-10 03:58S 33°17' E 152°17'0 0.9
2018-May-10 03:28S 33°17' E 152°16'0 0.9
2018-May-10 02:58S 33°17' E 152°16'1 1.2
2018-May-10 02:29S 33°17' E 152°15'1 1.6
2018-May-10 01:55S 33°17' E 152°14'0 1.0
2018-May-10 01:28S 33°17' E 152°13'1 1.3
2018-May-10 01:01S 33°16' E 152°13'1 1.3
2018-May-10 00:28S 33°16' E 152°12'1 1.5
2018-May-10 00:01S 33°16' E 152°11'1 1.8
2018-May-09 23:30S 33°16' E 152°10'1 1.8
2018-May-09 23:00S 33°16' E 152°09'1 1.7
2018-May-09 22:27S 33°16' E 152°08'1 1.8
2018-May-09 22:00S 33°16' E 152°07'1 1.7
2018-May-09 21:26S 33°16' E 152°06'1 1.8
2018-May-09 20:59S 33°16' E 152°05'1 1.5
2018-May-09 20:29S 33°16' E 152°04'1 1.7
2018-May-09 19:59S 33°16' E 152°03'1 1.5
2018-May-09 19:29S 33°16' E 152°02'1 1.3
2018-May-09 18:59S 33°16' E 152°01'0 0.8
2018-May-09 18:29S 33°16' E 152°01'0 0.8
2018-May-09 17:56S 33°16' E 152°00'0 0.7
2018-May-09 17:29S 33°16' E 151°60'0 0.4
2018-May-09 16:59S 33°16' E 151°60'0 0.5
2018-May-09 16:29S 33°16' E 151°60'0 0.5
2018-May-09 15:59S 33°17' E 151°59'0 0.4
2018-May-09 15:29S 33°17' E 151°59'0 0.6
2018-May-09 14:59S 33°16' E 151°59'0 0.9
2018-May-09 14:30S 33°16' E 151°59'1 1.0
2018-May-09 14:00S 33°16' E 151°58'1 2.0
2018-May-09 13:31S 33°15' E 151°57'4 8.3
2018-May-09 13:01S 33°14' E 151°52'4 8.8
2018-May-09 12:31S 33°14' E 151°47'1 1.4
2018-May-09 11:58S 33°14' E 151°48'1 1.1
2018-May-09 11:28S 33°14' E 151°49'0 0.9
2018-May-09 10:58S 33°14' E 151°49'0 0.9
2018-May-09 10:28S 33°14' E 151°50'0 0.9
2018-May-09 09:58S 33°14' E 151°50'0 0.9
2018-May-09 09:28S 33°13' E 151°51'0 0.9
2018-May-09 08:58S 33°13' E 151°51'1 1.2
2018-May-09 08:28S 33°13' E 151°52'1 1.0
2018-May-09 07:58S 33°13' E 151°53'1 1.0
2018-May-09 07:28S 33°13' E 151°53'1 1.0
2018-May-09 06:58S 33°13' E 151°54'0 0.8
2018-May-09 06:28S 33°13' E 151°54'0 0.8
2018-May-09 05:58S 33°13' E 151°55'0 0.8
2018-May-09 05:28S 33°13' E 151°55'0 0.8
2018-May-09 04:58S 33°13' E 151°56'0 0.7
2018-May-09 04:28S 33°13' E 151°56'1 1.3
2018-May-09 03:59S 33°12' E 151°57'2 4.4
2018-May-09 03:30S 33°11' E 151°58'4 6.3
2018-May-09 02:57S 33°09' E 152°02'0 0.5
2018-May-09 02:30S 33°09' E 152°02'0 0.3
2018-May-09 02:00S 33°09' E 152°02'0 0.5
2018-May-09 01:30S 33°09' E 152°01'0 0.4
2018-May-09 00:57S 33°09' E 152°01'0 0.4
2018-May-08 23:45S 33°09' E 152°00'0 0.3
2018-May-08 23:27S 33°09' E 152°00'0 0.4
2018-May-08 22:57S 33°09' E 152°00'0 0.2
2018-May-08 22:30S 33°09' E 152°00'0 0.2
2018-May-08 22:00S 33°09' E 152°00'0 0.2
2018-May-08 21:30S 33°09' E 151°60'0 0.1
2018-May-08 20:57S 33°09' E 151°60'0 0.3
2018-May-08 20:30S 33°09' E 151°60'0 0.4
2018-May-08 20:00S 33°09' E 151°60'0 0.5
2018-May-08 19:27S 33°09' E 151°59'0 0.6
2018-May-08 19:00S 33°08' E 151°59'0 0.7
2018-May-08 18:30S 33°08' E 151°59'0 0.7
2018-May-08 18:00S 33°08' E 151°59'0 0.7
2018-May-08 17:30S 33°07' E 151°59'0 0.9
2018-May-08 17:00S 33°07' E 151°59'0 0.9
2018-May-08 16:30S 33°07' E 151°58'0 0.8
2018-May-08 16:00S 33°06' E 151°58'0 0.9
2018-May-08 15:30S 33°06' E 151°58'1 1.1
2018-May-08 15:00S 33°05' E 151°58'2 5.0
2018-May-08 14:31S 33°03' E 151°59'611.3
2018-May-08 14:01S 32°59' E 152°04'612.4
2018-May-08 13:30S 32°55' E 152°09'612.3
2018-May-08 13:01S 32°51' E 152°14'612.2
2018-May-08 12:30S 32°46' E 152°20'612.2
2018-May-08 12:01S 32°42' E 152°25'612.1
2018-May-08 11:31S 32°38' E 152°30'612.1
2018-May-08 11:01S 32°34' E 152°35'612.5
2018-May-08 10:31S 32°29' E 152°41'713.8
2018-May-08 10:00S 32°23' E 152°44'23414.2
2018-May-07 17:34S 28°36' E 153°49'413.8
2018-May-07 17:16S 28°32' E 153°49'413.9
2018-May-07 16:57S 28°28' E 153°49'613.8
2018-May-07 16:30S 28°22' E 153°50'713.4
2018-May-07 16:00S 28°15' E 153°49'712.8
2018-May-07 15:30S 28°09' E 153°46'612.3
2018-May-07 15:00S 28°03' E 153°44'611.9
2018-May-07 14:30S 27°58' E 153°42'612.1
2018-May-07 14:00S 27°51' E 153°42'711.9
2018-May-07 13:25S 27°45' E 153°42'511.7
2018-May-07 13:00S 27°40' E 153°42'611.5
2018-May-07 12:30S 27°34' E 153°42'611.5
2018-May-07 11:59S 27°28' E 153°42'511.5
2018-May-07 11:30S 27°22' E 153°42'611.8
2018-May-07 10:59S 27°16' E 153°42'611.7
2018-May-07 10:29S 27°10' E 153°42'611.9
2018-May-07 10:00S 27°05' E 153°42'611.7
2018-May-07 09:27S 26°58' E 153°42'  

Dump ship's entire track history